Time;durP1;ratioP1;P1;durP2;ratioP2;P2;SDS_P1;SDS_P2;PMS_P1;PMS_P2;Temp;Humidity;BMP_temperature;BMP_pressure;BME280_temperature;BME280_humidity;BME280_pressure;Samples;Min_cycle;Max_cycle;Signal;HPM_P1;HPM_P2
2024/01/12 00:00:46;;;;;;;70.15;28.13;;;1.40;99.90;;;;;;5107402;28;20111;-56
2024/01/12 00:03:12;;;;;;;71.82;27.23;;;0.50;99.90;;;;;;5103794;28;20040;-54
2024/01/12 00:05:38;;;;;;;70.18;25.83;;;0.50;99.90;;;;;;5111140;28;20066;-57
2024/01/12 00:08:04;;;;;;;72.70;26.23;;;1.60;99.90;;;;;;5107697;28;20049;-57
2024/01/12 00:10:29;;;;;;;69.88;26.02;;;1.30;99.90;;;;;;5111116;28;20047;-55
2024/01/12 00:12:55;;;;;;;68.03;26.25;;;0.80;99.90;;;;;;5110701;28;20063;-56
2024/01/12 00:15:21;;;;;;;66.97;24.40;;;0.60;99.90;;;;;;5110896;28;20100;-56
2024/01/12 00:17:46;;;;;;;71.32;24.95;;;1.70;99.90;;;;;;5111206;28;20056;-54
2024/01/12 00:20:12;;;;;;;64.75;24.48;;;1.10;99.90;;;;;;5113488;28;20043;-54
2024/01/12 00:22:38;;;;;;;65.60;23.27;;;0.80;99.90;;;;;;5031703;28;20084;-57
2024/01/12 00:25:04;;;;;;;60.17;23.63;;;0.60;99.90;;;;;;5029785;28;20078;-56
2024/01/12 00:27:30;;;;;;;61.10;22.42;;;1.60;99.90;;;;;;5075814;28;20044;-55
2024/01/12 00:29:55;;;;;;;60.08;20.30;;;0.60;99.90;;;;;;5114791;28;20113;-56
2024/01/12 00:32:21;;;;;;;55.75;19.15;;;1.90;99.90;;;;;;5115038;28;20063;-57
2024/01/12 00:34:47;;;;;;;58.40;19.88;;;1.70;99.90;;;;;;5109597;28;20084;-56
2024/01/12 00:37:12;;;;;;;53.65;18.58;;;1.20;99.90;;;;;;5114946;28;20118;-56
2024/01/12 00:39:38;;;;;;;57.92;19.02;;;1.70;99.90;;;;;;5114967;28;20035;-57
2024/01/12 00:42:05;;;;;;;45.13;17.25;;;1.90;99.90;;;;;;5115058;28;20042;-55
2024/01/12 00:44:30;;;;;;;55.33;17.67;;;0.80;99.90;;;;;;5114821;28;20036;-55
2024/01/12 00:46:56;;;;;;;47.42;16.88;;;0.90;99.90;;;;;;5067567;28;20048;-53
2024/01/12 00:49:22;;;;;;;49.63;18.02;;;2.00;99.90;;;;;;5030977;28;20041;-53
2024/01/12 00:51:48;;;;;;;48.17;17.15;;;1.60;99.90;;;;;;5031021;28;20087;-56
2024/01/12 00:54:15;;;;;;;45.90;16.23;;;0.80;99.90;;;;;;5030680;28;20510;-52
2024/01/12 00:56:41;;;;;;;52.25;17.63;;;2.10;99.90;;;;;;5031047;28;20073;-52
2024/01/12 00:59:07;;;;;;;45.15;16.42;;;1.70;99.90;;;;;;5052893;28;20027;-53
2024/01/12 01:01:35;;;;;;;49.80;17.33;;;1.50;99.90;;;;;;5114154;28;20099;-55
2024/01/12 01:04:01;;;;;;;37.80;16.23;;;2.00;99.90;;;;;;5114345;28;20083;-54
2024/01/12 01:06:28;;;;;;;40.13;16.40;;;1.40;99.90;;;;;;5091060;28;20043;-56
2024/01/12 01:08:54;;;;;;;47.90;17.23;;;2.20;99.90;;;;;;5111746;28;20031;-57
2024/01/12 01:11:20;;;;;;;57.78;17.67;;;1.60;99.90;;;;;;5109505;28;20470;-55
2024/01/12 01:13:46;;;;;;;44.53;17.83;;;1.90;99.90;;;;;;5113886;28;20039;-56
2024/01/12 01:16:11;;;;;;;49.15;18.08;;;1.20;99.90;;;;;;5113947;28;20031;-56
2024/01/12 01:18:37;;;;;;;47.13;17.35;;;1.10;99.90;;;;;;5114388;28;20075;-56
2024/01/12 01:21:03;;;;;;;45.97;17.83;;;2.30;99.90;;;;;;5112748;28;20528;-53
2024/01/12 01:23:29;;;;;;;43.00;15.93;;;2.20;99.90;;;;;;5030630;28;20364;-56
2024/01/12 01:25:54;;;;;;;40.15;16.02;;;2.00;99.90;;;;;;5088190;28;20079;-56
2024/01/12 01:28:20;;;;;;;44.50;16.45;;;1.90;99.90;;;;;;5113552;28;20039;-55
2024/01/12 01:30:46;;;;;;;43.58;16.88;;;2.20;99.90;;;;;;5113768;28;20077;-56
2024/01/12 01:33:12;;;;;;;45.63;17.50;;;1.80;99.90;;;;;;5113479;28;20069;-56
2024/01/12 01:35:37;;;;;;;43.20;16.67;;;1.30;99.90;;;;;;5113552;28;20031;-56
2024/01/12 01:38:03;;;;;;;46.03;16.35;;;2.20;99.90;;;;;;5113978;28;20035;-55
2024/01/12 01:40:29;;;;;;;37.53;15.38;;;1.10;99.90;;;;;;5113873;28;20043;-54
2024/01/12 01:42:55;;;;;;;36.08;16.52;;;2.10;99.90;;;;;;5106002;28;20035;-56
2024/01/12 01:45:21;;;;;;;37.97;14.93;;;2.30;99.90;;;;;;5113599;28;20047;-54
2024/01/12 01:47:47;;;;;;;40.15;13.73;;;2.30;99.90;;;;;;5113726;28;20048;-55
2024/01/12 01:50:14;;;;;;;35.42;12.80;;;1.10;99.90;;;;;;5111941;28;20032;-53
2024/01/12 01:52:41;;;;;;;39.33;12.27;;;1.00;99.90;;;;;;5109971;28;20043;-54
2024/01/12 01:55:08;;;;;;;32.22;10.27;;;1.60;99.90;;;;;;5113120;28;20073;-57
2024/01/12 01:57:35;;;;;;;31.17;10.75;;;1.90;99.90;;;;;;5113431;28;20798;-54
2024/01/12 02:00:02;;;;;;;27.92;9.55;;;1.80;99.90;;;;;;5113556;28;20486;-54
2024/01/12 02:02:28;;;;;;;28.55;8.38;;;1.50;99.90;;;;;;5112837;28;20047;-56
2024/01/12 02:04:57;;;;;;;26.30;8.63;;;1.20;99.90;;;;;;5033825;28;20041;-56
2024/01/12 02:07:23;;;;;;;25.23;7.75;;;1.20;99.90;;;;;;5069445;28;20043;-54
2024/01/12 02:09:49;;;;;;;22.77;7.30;;;1.50;99.90;;;;;;5112850;28;20047;-54
2024/01/12 02:12:15;;;;;;;29.80;7.65;;;1.30;99.90;;;;;;5112792;28;20039;-56
2024/01/12 02:14:40;;;;;;;22.58;7.18;;;2.30;99.90;;;;;;5113426;28;20028;-56
2024/01/12 02:17:07;;;;;;;21.70;6.18;;;1.20;99.90;;;;;;5088597;28;20036;-56
2024/01/12 02:19:32;;;;;;;21.48;6.88;;;2.40;99.90;;;;;;5112702;28;20042;-55
2024/01/12 02:21:58;;;;;;;22.77;6.72;;;1.40;99.90;;;;;;5112880;28;20039;-57
2024/01/12 02:24:23;;;;;;;19.10;6.72;;;1.80;99.90;;;;;;5112682;28;20044;-55
2024/01/12 02:26:49;;;;;;;27.05;6.80;;;1.20;99.90;;;;;;5040151;28;20041;-53
2024/01/12 02:29:15;;;;;;;23.20;5.82;;;2.20;99.90;;;;;;5039259;28;20443;-54
2024/01/12 02:31:42;;;;;;;25.38;6.38;;;1.40;99.90;;;;;;5112119;28;20032;-55
2024/01/12 02:34:07;;;;;;;24.77;5.97;;;1.40;99.90;;;;;;5112563;28;20091;-55
2024/01/12 02:36:33;;;;;;;24.08;6.50;;;1.80;99.90;;;;;;5112518;27;20423;-55
2024/01/12 02:38:59;;;;;;;20.60;5.68;;;1.20;99.90;;;;;;5112887;28;20036;-53
2024/01/12 02:41:24;;;;;;;16.35;5.45;;;2.30;99.90;;;;;;5112633;28;20095;-58
2024/01/12 02:43:51;;;;;;;19.23;4.97;;;1.30;99.90;;;;;;5030421;28;20037;-56
2024/01/12 02:46:18;;;;;;;17.95;5.55;;;1.90;99.90;;;;;;5029163;28;20049;-56
2024/01/12 02:48:43;;;;;;;15.85;5.97;;;2.40;99.90;;;;;;5029364;28;20495;-58
2024/01/12 02:51:09;;;;;;;19.23;5.32;;;1.50;99.90;;;;;;5029117;28;20050;-57
2024/01/12 02:53:35;;;;;;;21.38;5.43;;;2.40;99.90;;;;;;5028969;28;20492;-56
2024/01/12 02:56:00;;;;;;;17.42;5.15;;;1.50;99.90;;;;;;5078810;28;20141;-58
2024/01/12 02:58:26;;;;;;;17.50;4.70;;;1.70;99.90;;;;;;5112332;28;20074;-56
2024/01/12 03:00:52;;;;;;;18.25;5.30;;;1.50;99.90;;;;;;5032883;28;20044;-55
2024/01/12 03:03:19;;;;;;;19.02;5.43;;;1.60;99.90;;;;;;5028752;28;20057;-57
2024/01/12 03:05:45;;;;;;;19.58;5.43;;;2.40;99.90;;;;;;5028918;28;20041;-54
2024/01/12 03:08:10;;;;;;;19.27;6.35;;;1.40;99.90;;;;;;5027614;28;20098;-55
2024/01/12 03:10:37;;;;;;;22.48;5.95;;;1.80;99.90;;;;;;5028733;28;20112;-57
2024/01/12 03:13:03;;;;;;;19.02;5.57;;;2.40;99.90;;;;;;5027189;28;20081;-56
2024/01/12 03:15:28;;;;;;;16.58;5.78;;;2.00;99.90;;;;;;5028547;28;20086;-56
2024/01/12 03:17:56;;;;;;;23.85;5.60;;;1.20;99.90;;;;;;5034004;28;20469;-57
2024/01/12 03:20:22;;;;;;;19.48;5.47;;;1.80;99.90;;;;;;5028395;28;20045;-57
2024/01/12 03:22:48;;;;;;;20.80;5.60;;;2.20;99.90;;;;;;5028497;28;20476;-57
2024/01/12 03:25:13;;;;;;;18.83;5.78;;;2.30;99.90;;;;;;5028825;28;20033;-57
2024/01/12 03:27:39;;;;;;;17.65;5.70;;;2.20;99.90;;;;;;5029047;28;20042;-57
2024/01/12 03:30:05;;;;;;;18.48;5.60;;;2.00;99.90;;;;;;5028567;28;20484;-56
2024/01/12 03:32:33;;;;;;;16.17;5.43;;;1.10;99.90;;;;;;5028279;28;20120;-57
2024/01/12 03:34:59;;;;;;;22.55;6.07;;;1.60;99.90;;;;;;5028271;28;20112;-57
2024/01/12 03:37:24;;;;;;;21.05;5.53;;;1.00;99.90;;;;;;5028225;28;20112;-56
2024/01/12 03:39:50;;;;;;;19.13;5.50;;;1.90;99.90;;;;;;5042405;28;20034;-58
2024/01/12 03:42:16;;;;;;;25.73;5.55;;;2.10;99.90;;;;;;5111568;28;20046;-56
2024/01/12 03:44:42;;;;;;;20.85;5.97;;;1.00;99.90;;;;;;5027528;28;20479;-57
2024/01/12 03:47:08;;;;;;;25.00;5.35;;;2.00;99.90;;;;;;5028317;28;20033;-56
2024/01/12 03:49:33;;;;;;;22.45;6.57;;;1.10;99.90;;;;;;5028337;28;20037;-58
2024/01/12 03:51:59;;;;;;;19.55;6.20;;;2.00;99.90;;;;;;5028012;28;20094;-58
2024/01/12 03:54:25;;;;;;;22.40;5.97;;;1.10;99.90;;;;;;5081805;28;20110;-58
2024/01/12 03:56:51;;;;;;;21.85;5.60;;;2.10;99.90;;;;;;5111195;28;20047;-58
2024/01/12 03:59:16;;;;;;;21.55;6.03;;;1.20;99.90;;;;;;5111554;28;21186;-58
2024/01/12 04:01:46;;;;;;;27.45;6.43;;;2.10;99.90;;;;;;5105250;28;20116;-55
2024/01/12 04:04:12;;;;;;;20.70;6.68;;;1.60;99.90;;;;;;5111090;28;20046;-56
2024/01/12 04:06:39;;;;;;;14.52;5.45;;;1.20;99.90;;;;;;5027856;28;20033;-58
2024/01/12 04:09:05;;;;;;;20.08;5.35;;;2.10;99.90;;;;;;5028193;28;20033;-57
2024/01/12 04:11:31;;;;;;;21.17;6.00;;;2.10;99.90;;;;;;5028042;28;20053;-55
2024/01/12 04:13:56;;;;;;;17.02;5.93;;;1.10;99.90;;;;;;5028144;28;20049;-57
2024/01/12 04:16:22;;;;;;;17.48;5.10;;;1.00;99.90;;;;;;5034051;28;20037;-56
2024/01/12 04:18:48;;;;;;;17.08;5.95;;;1.90;99.90;;;;;;5100153;28;20028;-56
2024/01/12 04:21:14;;;;;;;16.08;5.53;;;2.10;99.90;;;;;;5102194;28;20046;-57
2024/01/12 04:23:40;;;;;;;21.85;6.18;;;2.00;99.90;;;;;;5106958;28;20036;-55
2024/01/12 04:26:06;;;;;;;20.95;5.80;;;1.70;99.90;;;;;;5111345;28;20103;-56
2024/01/12 04:28:32;;;;;;;15.90;6.15;;;1.30;99.90;;;;;;5110913;28;20118;-57
2024/01/12 04:31:00;;;;;;;21.45;5.72;;;2.10;99.90;;;;;;5108213;28;20120;-57
2024/01/12 04:33:26;;;;;;;18.77;5.70;;;1.00;99.90;;;;;;5110220;28;20070;-57
2024/01/12 04:35:51;;;;;;;22.20;6.00;;;1.80;99.90;;;;;;5110791;28;20126;-58
2024/01/12 04:38:17;;;;;;;22.25;5.82;;;1.00;99.90;;;;;;5110908;28;20039;-56
2024/01/12 04:40:43;;;;;;;20.77;5.53;;;2.00;99.90;;;;;;5110807;28;20077;-58
2024/01/12 04:43:08;;;;;;;20.73;6.40;;;1.40;99.90;;;;;;5110806;28;20319;-57
2024/01/12 04:45:34;;;;;;;23.20;6.72;;;1.20;99.90;;;;;;5111062;28;20032;-57
2024/01/12 04:48:00;;;;;;;20.52;6.20;;;0.90;99.90;;;;;;5107165;28;20051;-56
2024/01/12 04:50:25;;;;;;;21.02;6.60;;;0.90;99.90;;;;;;5101449;28;20111;-56
2024/01/12 04:52:52;;;;;;;17.90;6.38;;;2.10;99.90;;;;;;5110676;28;20036;-58
2024/01/12 04:55:18;;;;;;;14.07;5.90;;;1.80;99.90;;;;;;5110637;28;20051;-57
2024/01/12 04:57:44;;;;;;;18.20;6.18;;;1.60;99.90;;;;;;5102342;28;20032;-57
2024/01/12 05:00:10;;;;;;;23.33;6.25;;;1.40;99.90;;;;;;5110751;28;20042;-58
2024/01/12 05:02:36;;;;;;;17.98;6.05;;;2.10;99.90;;;;;;5027067;28;20049;-57
2024/01/12 05:05:05;;;;;;;19.85;6.13;;;1.90;99.90;;;;;;5027988;28;20029;-58
2024/01/12 05:07:31;;;;;;;20.00;5.63;;;1.70;99.90;;;;;;5061327;28;20069;-59
2024/01/12 05:09:56;;;;;;;22.52;6.65;;;1.20;99.90;;;;;;5112229;28;20036;-58
2024/01/12 05:12:22;;;;;;;18.45;6.18;;;2.00;99.90;;;;;;5108501;28;20467;-59
2024/01/12 05:14:48;;;;;;;24.33;6.72;;;0.90;99.90;;;;;;5114345;28;20039;-58
2024/01/12 05:17:14;;;;;;;20.77;6.88;;;0.90;99.90;;;;;;5109015;28;20043;-56
2024/01/12 05:19:40;;;;;;;15.98;5.88;;;1.70;99.90;;;;;;5114157;28;20382;-58
2024/01/12 05:22:07;;;;;;;21.33;6.40;;;0.80;99.90;;;;;;5114349;28;20166;-58
2024/01/12 05:24:33;;;;;;;23.00;6.15;;;1.30;99.90;;;;;;5114291;28;20036;-58
2024/01/12 05:26:59;;;;;;;21.17;6.32;;;2.10;99.90;;;;;;5114069;28;20106;-58
2024/01/12 05:29:25;;;;;;;20.33;6.88;;;0.80;99.90;;;;;;5113906;28;20154;-56
2024/01/12 05:31:51;;;;;;;19.70;6.28;;;0.80;99.90;;;;;;5113635;28;20028;-59
2024/01/12 05:34:16;;;;;;;24.63;6.65;;;2.00;99.90;;;;;;5109466;27;20515;-58
2024/01/12 05:36:42;;;;;;;21.90;6.90;;;2.00;99.90;;;;;;5108337;28;20039;-59
2024/01/12 05:39:08;;;;;;;17.98;6.35;;;1.10;99.90;;;;;;5113602;28;20078;-58
2024/01/12 05:41:34;;;;;;;18.67;6.20;;;1.00;99.90;;;;;;5114062;28;20039;-58
2024/01/12 05:44:00;;;;;;;22.60;6.72;;;1.80;99.90;;;;;;5113797;28;20035;-59
2024/01/12 05:46:26;;;;;;;20.17;7.00;;;1.90;99.90;;;;;;5113966;28;20434;-57
2024/01/12 05:48:52;;;;;;;22.35;7.00;;;1.50;99.90;;;;;;5031722;28;20488;-57
2024/01/12 05:51:19;;;;;;;21.50;6.80;;;2.00;99.90;;;;;;5106172;28;20044;-57
2024/01/12 05:53:44;;;;;;;24.42;6.90;;;0.80;99.90;;;;;;5043274;28;20107;-58
2024/01/12 05:56:10;;;;;;;18.13;6.72;;;1.90;99.90;;;;;;5035008;28;20055;-58
2024/01/12 05:58:36;;;;;;;19.65;6.57;;;1.60;99.90;;;;;;5113463;28;20039;-58
2024/01/12 06:01:01;;;;;;;21.77;6.57;;;1.30;99.90;;;;;;5108157;27;20077;-58
2024/01/12 06:03:30;;;;;;;20.58;6.63;;;1.10;99.90;;;;;;5112885;28;20041;-59
2024/01/12 06:05:56;;;;;;;19.95;7.32;;;1.90;99.90;;;;;;5113303;28;20050;-57
2024/01/12 06:08:22;;;;;;;20.83;6.38;;;1.70;99.90;;;;;;5113641;28;20073;-58
2024/01/12 06:10:48;;;;;;;20.27;6.75;;;1.70;99.90;;;;;;5113333;28;20502;-58
2024/01/12 06:13:13;;;;;;;22.42;6.35;;;1.80;99.90;;;;;;5113334;28;20036;-57
2024/01/12 06:15:39;;;;;;;20.88;7.22;;;0.60;99.90;;;;;;5113176;28;20046;-58
2024/01/12 06:18:05;;;;;;;26.48;7.85;;;0.80;99.90;;;;;;5112326;28;20035;-58
2024/01/12 06:20:31;;;;;;;21.60;8.50;;;0.70;99.90;;;;;;5105342;28;20663;-58
2024/01/12 06:22:57;;;;;;;20.02;7.57;;;1.30;99.90;;;;;;5112934;28;20031;-57
2024/01/12 06:25:23;;;;;;;25.48;6.95;;;1.90;99.90;;;;;;5112690;28;20035;-58
2024/01/12 06:27:49;;;;;;;27.52;8.40;;;2.20;99.90;;;;;;5112958;27;20039;-57
2024/01/12 06:30:16;;;;;;;24.08;7.75;;;1.90;99.90;;;;;;5042115;28;20400;-58
2024/01/12 06:32:42;;;;;;;19.00;7.55;;;1.20;99.90;;;;;;5029092;28;20551;-58
2024/01/12 06:35:09;;;;;;;21.63;7.97;;;0.70;99.90;;;;;;5029235;28;20116;-59
2024/01/12 06:37:35;;;;;;;17.83;7.93;;;1.80;99.90;;;;;;5029358;28;20045;-58
2024/01/12 06:40:00;;;;;;;20.75;7.68;;;1.30;99.90;;;;;;5029459;28;20037;-58
2024/01/12 06:42:29;;;;;;;23.48;8.18;;;2.00;99.90;;;;;;5092502;28;20077;-58
2024/01/12 06:44:55;;;;;;;30.33;8.32;;;0.80;99.90;;;;;;5112351;28;20044;-58
2024/01/12 06:47:20;;;;;;;22.65;8.05;;;0.90;99.90;;;;;;5112554;28;20089;-58
2024/01/12 06:49:46;;;;;;;25.77;8.02;;;0.90;99.90;;;;;;5112680;28;20055;-59
2024/01/12 06:52:13;;;;;;;24.88;7.93;;;0.70;99.90;;;;;;5112310;28;20197;-59
2024/01/12 06:54:43;;;;;;;21.65;8.35;;;1.00;99.90;;;;;;5112651;27;20043;-58
2024/01/12 06:57:08;;;;;;;28.88;8.18;;;1.80;99.90;;;;;;5112467;28;20040;-58
2024/01/12 06:59:34;;;;;;;21.05;7.68;;;1.90;99.90;;;;;;5112473;28;20140;-59
2024/01/12 07:02:00;;;;;;;23.85;8.02;;;1.50;99.90;;;;;;5107237;28;20040;-59
2024/01/12 07:04:25;;;;;;;24.95;8.48;;;1.80;99.90;;;;;;5051315;28;20087;-59
2024/01/12 07:06:52;;;;;;;23.38;8.65;;;1.60;99.90;;;;;;5046167;28;20045;-59
2024/01/12 07:09:19;;;;;;;28.20;7.97;;;1.80;99.90;;;;;;5104918;28;20498;-58
2024/01/12 07:11:45;;;;;;;23.73;8.35;;;1.30;99.90;;;;;;5111870;28;20031;-58
2024/01/12 07:14:13;;;;;;;31.63;9.73;;;1.70;99.90;;;;;;5095672;28;20121;-58
2024/01/12 07:16:38;;;;;;;26.52;8.45;;;0.70;99.90;;;;;;5030925;28;20045;-58
2024/01/12 07:19:04;;;;;;;21.63;9.70;;;0.90;99.90;;;;;;5026669;28;20033;-59
2024/01/12 07:21:30;;;;;;;30.20;9.95;;;1.90;99.90;;;;;;5026611;28;20040;-59
2024/01/12 07:23:56;;;;;;;23.95;9.20;;;0.80;99.90;;;;;;5020799;28;20094;-58
2024/01/12 07:26:21;;;;;;;28.75;9.63;;;0.80;99.90;;;;;;5016924;28;20038;-59
2024/01/12 07:28:47;;;;;;;24.58;9.40;;;1.90;99.90;;;;;;5026349;28;20033;-59
2024/01/12 07:31:13;;;;;;;33.33;10.85;;;0.90;99.90;;;;;;5020228;28;20038;-58
2024/01/12 07:33:38;;;;;;;26.90;9.18;;;0.70;99.90;;;;;;5025327;28;20101;-59
2024/01/12 07:36:04;;;;;;;30.98;9.80;;;1.90;99.90;;;;;;5016549;28;20491;-59
2024/01/12 07:38:30;;;;;;;39.58;10.68;;;0.90;99.90;;;;;;5033255;28;20045;-60
2024/01/12 07:40:55;;;;;;;28.40;10.18;;;1.00;99.90;;;;;;5025670;28;20035;-59
2024/01/12 07:43:21;;;;;;;22.35;9.48;;;1.90;99.90;;;;;;5025582;28;20089;-58
2024/01/12 07:45:47;;;;;;;27.35;11.05;;;1.10;99.90;;;;;;5015088;28;20034;-59
2024/01/12 07:48:13;;;;;;;23.20;9.45;;;1.40;99.90;;;;;;5029522;28;20416;-59
2024/01/12 07:50:38;;;;;;;26.10;10.60;;;0.70;99.90;;;;;;5021134;28;20042;-60
2024/01/12 07:53:05;;;;;;;24.38;10.43;;;0.70;99.90;;;;;;5025054;28;20045;-59
2024/01/12 07:55:31;;;;;;;31.27;11.27;;;0.80;99.90;;;;;;5021781;28;20058;-59
2024/01/12 07:57:56;;;;;;;26.58;11.02;;;1.80;99.90;;;;;;5021896;28;20037;-59
2024/01/12 08:00:22;;;;;;;27.67;10.48;;;2.10;99.90;;;;;;5012065;28;20053;-59
2024/01/12 08:02:51;;;;;;;29.08;10.77;;;2.00;99.90;;;;;;5024993;28;20034;-57
2024/01/12 08:05:18;;;;;;;21.98;9.60;;;2.10;99.90;;;;;;4992572;28;20487;-59
2024/01/12 08:07:43;;;;;;;24.35;9.60;;;1.90;99.90;;;;;;5023480;28;20092;-58
2024/01/12 08:10:09;;;;;;;24.73;10.07;;;1.10;99.90;;;;;;5066113;28;20032;-59
2024/01/12 08:12:35;;;;;;;22.88;10.32;;;1.60;99.90;;;;;;5075916;28;20035;-59
2024/01/12 08:15:01;;;;;;;31.00;11.00;;;2.10;99.90;;;;;;5071752;28;20408;-59
2024/01/12 08:17:26;;;;;;;26.75;9.75;;;2.10;99.90;;;;;;5061307;28;20385;-58
2024/01/12 08:19:52;;;;;;;31.30;10.60;;;2.20;99.90;;;;;;5097630;28;20040;-59
2024/01/12 08:22:18;;;;;;;30.35;10.00;;;2.30;99.90;;;;;;5094529;28;20043;-59
2024/01/12 08:24:43;;;;;;;30.05;10.70;;;2.20;99.90;;;;;;5074000;28;20485;-59
2024/01/12 08:27:09;;;;;;;32.08;9.80;;;1.10;99.90;;;;;;5101171;28;20090;-60
2024/01/12 08:29:35;;;;;;;37.65;11.23;;;2.20;99.90;;;;;;5088139;28;20116;-59
2024/01/12 08:32:00;;;;;;;30.58;11.25;;;2.20;99.90;;;;;;5095446;28;20034;-59
2024/01/12 08:34:26;;;;;;;28.77;10.25;;;2.30;99.90;;;;;;5099955;28;20110;-59
2024/01/12 08:36:53;;;;;;;36.72;10.52;;;1.10;99.90;;;;;;5101767;28;20478;-60
2024/01/12 08:39:19;;;;;;;26.30;10.10;;;1.10;99.90;;;;;;5029806;28;20044;-60
2024/01/12 08:41:44;;;;;;;30.50;10.10;;;1.60;99.90;;;;;;5093708;28;20044;-59
2024/01/12 08:44:13;;;;;;;33.08;10.45;;;1.70;99.90;;;;;;5067938;28;20045;-59
2024/01/12 08:46:39;;;;;;;27.67;9.82;;;2.50;99.90;;;;;;5099012;28;20048;-59
2024/01/12 08:49:05;;;;;;;29.38;9.77;;;2.60;99.90;;;;;;5099424;28;20036;-60
2024/01/12 08:51:31;;;;;;;20.45;9.20;;;1.40;99.90;;;;;;5093857;28;20077;-60
2024/01/12 08:53:56;;;;;;;36.78;10.32;;;2.70;99.90;;;;;;5084704;28;20499;-61
2024/01/12 08:56:22;;;;;;;24.02;9.50;;;2.70;99.90;;;;;;5024376;28;20087;-60
2024/01/12 08:58:48;;;;;;;28.85;9.05;;;1.60;99.90;;;;;;5108739;28;20039;-59
2024/01/12 09:01:14;;;;;;;28.25;9.65;;;2.30;99.90;;;;;;5100332;28;20044;-59
2024/01/12 09:03:39;;;;;;;36.65;9.38;;;2.70;99.90;;;;;;5072962;28;20113;-60
2024/01/12 09:06:05;;;;;;;26.17;9.80;;;1.50;99.90;;;;;;5109031;28;20043;-59
2024/01/12 09:08:31;;;;;;;26.98;9.18;;;2.60;99.90;;;;;;5096065;28;20049;-59
2024/01/12 09:10:56;;;;;;;28.85;9.43;;;1.40;99.90;;;;;;5087345;28;20646;-60
2024/01/12 09:13:22;;;;;;;28.60;9.32;;;1.60;99.90;;;;;;5073793;28;20124;-60
2024/01/12 09:15:48;;;;;;;22.17;8.82;;;1.50;99.90;;;;;;5074131;28;20083;-59
2024/01/12 09:18:14;;;;;;;23.40;8.73;;;2.30;99.90;;;;;;5024256;28;20071;-59
2024/01/12 09:20:39;;;;;;;25.08;8.80;;;1.90;99.90;;;;;;5088277;28;20371;-60
2024/01/12 09:23:05;;;;;;;22.75;8.45;;;1.70;99.90;;;;;;5079493;28;20084;-60
2024/01/12 09:25:32;;;;;;;26.33;9.25;;;2.60;99.90;;;;;;5069665;28;20035;-60
2024/01/12 09:27:58;;;;;;;20.98;7.85;;;2.90;99.90;;;;;;5092226;28;20040;-60
2024/01/12 09:30:24;;;;;;;28.13;9.05;;;1.70;99.90;;;;;;5089033;28;20048;-60
2024/01/12 09:32:49;;;;;;;24.88;7.65;;;2.70;99.90;;;;;;5079682;28;20047;-59
2024/01/12 09:35:15;;;;;;;19.70;7.75;;;1.60;99.90;;;;;;5100638;28;20494;-58
2024/01/12 09:37:41;;;;;;;20.65;7.18;;;2.60;99.90;;;;;;5088752;28;20051;-60
2024/01/12 09:40:07;;;;;;;25.10;7.78;;;2.00;99.90;;;;;;5100094;28;20035;-60
2024/01/12 09:42:33;;;;;;;23.00;7.63;;;2.00;99.90;;;;;;5093083;28;20035;-60
2024/01/12 09:45:00;;;;;;;28.63;7.75;;;2.50;99.90;;;;;;5083769;28;20402;-60
2024/01/12 09:47:26;;;;;;;18.05;5.03;;;0.90;99.90;;;;;;5072687;28;20031;-57
2024/01/12 09:49:53;;;;;;;17.13;5.93;;;2.00;99.90;;;;;;5107438;28;20618;-58
2024/01/12 09:52:19;;;;;;;24.45;6.00;;;2.30;99.90;;;;;;5095474;28;20063;-57
2024/01/12 09:54:45;;;;;;;20.67;4.80;;;3.30;99.90;;;;;;5090735;28;20077;-58
2024/01/12 09:57:16;;;;;;;24.10;5.45;;;3.20;99.90;;;;;;5083281;28;20040;-58
2024/01/12 09:59:43;;;;;;;19.17;5.20;;;2.70;99.90;;;;;;5074892;28;21128;-57
2024/01/12 10:02:15;;;;;;;22.85;5.72;;;2.50;99.90;;;;;;5023059;28;20071;-58
2024/01/12 10:04:41;;;;;;;18.73;4.95;;;3.40;99.90;;;;;;5099646;28;20083;-57
2024/01/12 10:07:07;;;;;;;22.23;4.80;;;3.40;99.90;;;;;;5019873;28;20134;-58
2024/01/12 10:09:32;;;;;;;23.30;4.78;;;3.50;99.90;;;;;;5083598;28;20039;-58
2024/01/12 10:11:59;;;;;;;22.65;5.15;;;3.00;99.90;;;;;;5075237;28;20410;-58
2024/01/12 10:14:25;;;;;;;26.50;4.97;;;3.50;99.90;;;;;;5091629;28;20039;-57
2024/01/12 10:16:55;;;;;;;18.83;5.32;;;2.40;99.90;;;;;;5088295;28;20039;-58
2024/01/12 10:19:22;;;;;;;23.88;4.78;;;3.50;99.90;;;;;;5082981;28;20039;-57
2024/01/12 10:21:48;;;;;;;23.33;4.45;;;2.50;99.90;;;;;;5113027;28;20040;-58
2024/01/12 10:24:20;;;;;;;22.80;4.45;;;2.60;99.90;;;;;;5027743;28;20095;-58
2024/01/12 10:26:51;;;;;;;16.40;3.80;;;2.60;99.90;;;;;;5018836;28;20045;-58
2024/01/12 10:29:17;;;;;;;18.20;4.47;;;4.30;99.90;;;;;;5099299;28;20113;-57
2024/01/12 10:31:44;;;;;;;21.02;4.35;;;3.40;99.90;;;;;;5083422;28;20045;-58
2024/01/12 10:34:11;;;;;;;23.52;4.45;;;2.90;99.90;;;;;;5062504;28;20482;-59
2024/01/12 10:36:38;;;;;;;24.75;4.88;;;3.70;99.90;;;;;;5108877;28;20036;-59
2024/01/12 10:39:09;;;;;;;24.25;5.05;;;4.00;99.90;;;;;;5099312;28;20039;-59
2024/01/12 10:41:35;;;;;;;29.70;4.80;;;4.10;99.90;;;;;;5083000;28;20112;-58
2024/01/12 10:44:04;;;;;;;26.58;4.70;;;3.60;99.90;;;;;;5069737;27;20033;-59
2024/01/12 10:46:35;;;;;;;24.88;5.00;;;3.50;99.90;;;;;;5105130;28;20034;-57
2024/01/12 10:49:10;;;;;;;26.42;4.68;;;4.20;99.90;;;;;;5088898;28;20042;-58
2024/01/12 10:51:48;;;;;;;21.70;4.55;;;3.60;99.90;;;;;;5112168;28;20039;-58
2024/01/12 10:54:23;;;;;;;20.17;4.90;;;4.50;99.90;;;;;;5112293;28;20051;-58
2024/01/12 10:56:49;;;;;;;26.02;5.43;;;4.30;99.90;;;;;;5112232;28;20043;-58
2024/01/12 10:59:15;;;;;;;29.38;5.18;;;4.30;99.90;;;;;;5112580;28;20088;-58
2024/01/12 11:01:41;;;;;;;24.42;4.53;;;4.40;99.90;;;;;;5112545;28;20062;-58
2024/01/12 11:04:08;;;;;;;25.33;4.78;;;4.40;99.90;;;;;;5111020;28;20036;-59
2024/01/12 11:06:35;;;;;;;24.40;4.43;;;3.60;99.90;;;;;;5112151;28;20538;-58
2024/01/12 11:09:01;;;;;;;30.42;4.60;;;4.30;99.90;;;;;;5104019;28;20031;-59
2024/01/12 11:11:35;;;;;;;23.13;4.93;;;4.50;99.90;;;;;;5111705;28;20043;-59
2024/01/12 11:14:02;;;;;;;21.50;5.15;;;3.70;99.90;;;;;;5112346;28;20137;-58
2024/01/12 11:16:28;;;;;;;21.67;5.78;;;4.60;99.90;;;;;;5112149;28;20071;-58
2024/01/12 11:18:54;;;;;;;23.70;4.30;;;4.00;99.90;;;;;;5112028;28;20519;-58
2024/01/12 11:21:26;;;;;;;20.65;4.13;;;4.70;99.90;;;;;;5112058;28;20077;-59
2024/01/12 11:23:53;;;;;;;24.70;3.95;;;4.60;99.90;;;;;;5111879;28;20039;-58
2024/01/12 11:26:19;;;;;;;21.67;3.47;;;4.90;99.90;;;;;;5111606;28;20157;-59
2024/01/12 11:28:45;;;;;;;19.10;3.78;;;4.20;99.90;;;;;;5112182;28;20032;-57
2024/01/12 11:31:11;;;;;;;13.52;2.75;;;4.30;99.90;;;;;;5111796;28;20035;-59
2024/01/12 11:33:45;;;;;;;23.15;3.13;;;4.10;99.90;;;;;;5103808;28;20129;-58
2024/01/12 11:36:15;;;;;;;26.13;2.78;;;4.20;99.90;;;;;;5111020;28;20040;-58
2024/01/12 11:38:42;;;;;;;19.58;3.00;;;4.40;99.90;;;;;;5111466;28;20039;-59
2024/01/12 11:41:14;;;;;;;20.00;2.45;;;4.20;99.90;;;;;;5111749;28;20070;-58
2024/01/12 11:43:47;;;;;;;23.98;2.58;;;4.50;99.90;;;;;;5111614;28;20054;-59
2024/01/12 11:46:12;;;;;;;21.35;3.10;;;4.00;99.90;;;;;;5110383;28;20050;-60
2024/01/12 11:48:38;;;;;;;23.10;3.40;;;3.90;99.90;;;;;;5100964;28;20035;-59
2024/01/12 11:51:04;;;;;;;19.05;3.58;;;4.50;99.90;;;;;;5083073;28;20036;-59
2024/01/12 11:53:32;;;;;;;24.27;3.97;;;4.20;99.90;;;;;;5011028;28;20053;-59
2024/01/12 11:55:58;;;;;;;26.50;4.35;;;4.50;99.90;;;;;;5068668;28;20063;-59
2024/01/12 11:58:23;;;;;;;32.15;5.97;;;4.80;99.90;;;;;;5098835;28;20047;-59
2024/01/12 12:00:49;;;;;;;28.10;5.75;;;4.80;99.90;;;;;;5081539;28;20038;-59
2024/01/12 12:03:15;;;;;;;26.20;6.25;;;4.20;99.90;;;;;;5067502;28;20041;-59
2024/01/12 12:05:41;;;;;;;30.80;7.10;;;4.10;99.90;;;;;;5063005;28;20039;-59
2024/01/12 12:08:06;;;;;;;33.58;7.18;;;4.20;99.90;;;;;;5095311;28;20027;-60
2024/01/12 12:10:32;;;;;;;27.83;7.80;;;4.70;99.90;;;;;;5081955;28;20048;-58
2024/01/12 12:12:58;;;;;;;28.52;6.63;;;5.00;99.90;;;;;;5072971;28;20042;-58
2024/01/12 12:15:24;;;;;;;24.50;6.55;;;4.50;99.90;;;;;;5058150;28;20400;-59
2024/01/12 12:17:50;;;;;;;22.10;5.53;;;4.40;99.90;;;;;;5015513;27;20038;-58
2024/01/12 12:20:16;;;;;;;25.40;5.30;;;4.80;99.90;;;;;;5030815;28;20040;-59
2024/01/12 12:22:44;;;;;;;17.40;4.72;;;5.00;99.90;;;;;;5028053;28;20495;-59
2024/01/12 12:25:14;;;;;;;29.42;6.43;;;4.80;99.90;;;;;;5002677;28;20062;-59
2024/01/12 12:27:41;;;;;;;31.25;9.50;;;4.90;99.90;;;;;;5026332;28;20040;-57
2024/01/12 12:30:08;;;;;;;37.88;11.65;;;4.40;99.90;;;;;;5017441;28;20090;-59
2024/01/12 12:32:34;;;;;;;38.40;11.52;;;5.10;99.90;;;;;;5031833;28;20042;-59
2024/01/12 12:35:17;;;;;;;28.55;9.13;;;4.80;99.90;;;;;;5056913;28;20042;-58
2024/01/12 12:37:43;;;;;;;25.90;7.63;;;4.30;99.90;;;;;;5086001;28;20031;-60
2024/01/12 12:40:11;;;;;;;23.73;5.95;;;5.10;99.90;;;;;;5062708;28;20046;-58